createdAt,value
2024-04-26T00:00:21.642Z,198.09
2024-04-26T00:01:21.709Z,199.24
2024-04-26T00:02:21.717Z,196.61
2024-04-26T00:03:21.919Z,198.13
2024-04-26T00:04:21.783Z,198.06
2024-04-26T00:05:21.912Z,198.52
2024-04-26T00:06:21.868Z,198.70
2024-04-26T00:07:21.870Z,198.50
2024-04-26T00:08:22.009Z,198.46
2024-04-26T00:09:21.990Z,199.35
2024-04-26T00:10:22.047Z,198.06
2024-04-26T00:11:22.105Z,198.90
2024-04-26T00:12:22.209Z,198.30
2024-04-26T00:13:22.118Z,198.28
2024-04-26T00:14:22.225Z,200.00
2024-04-26T00:15:22.223Z,198.50
2024-04-26T00:16:22.301Z,197.87
2024-04-26T00:17:22.562Z,198.06
2024-04-26T00:18:22.448Z,197.73
2024-04-26T00:19:22.417Z,198.04
2024-04-26T00:20:22.446Z,196.88
2024-04-26T00:21:22.470Z,196.26
2024-04-26T00:22:22.499Z,200.00
2024-04-26T00:23:22.574Z,197.50
2024-04-26T00:24:22.601Z,198.82
2024-04-26T00:25:22.605Z,197.74
2024-04-26T00:26:22.692Z,198.28
2024-04-26T00:27:22.770Z,198.43
2024-04-26T00:28:22.696Z,197.86
2024-04-26T00:29:22.803Z,197.63
2024-04-26T00:30:22.799Z,199.12
2024-04-26T00:31:22.843Z,198.41
2024-04-26T00:32:22.962Z,199.79
2024-04-26T00:33:23.012Z,198.27
2024-04-26T00:34:22.956Z,198.44
2024-04-26T00:35:23.087Z,198.64
2024-04-26T00:36:23.026Z,198.50
2024-04-26T00:37:23.070Z,198.48
2024-04-26T00:38:23.185Z,199.36
2024-04-26T00:39:23.139Z,197.59
2024-04-26T00:40:23.170Z,198.48
2024-04-26T00:41:23.278Z,197.45
2024-04-26T00:42:23.246Z,198.16
2024-04-26T00:43:23.349Z,198.62
2024-04-26T00:44:23.400Z,197.18
2024-04-26T00:45:23.375Z,198.25
2024-04-26T00:46:23.473Z,200.00
2024-04-26T00:47:23.596Z,198.93
2024-04-26T00:48:23.626Z,197.85
2024-04-26T00:49:23.554Z,197.66
2024-04-26T00:50:23.618Z,197.75
2024-04-26T00:51:23.622Z,197.96
2024-04-26T00:52:23.635Z,197.27
2024-04-26T00:53:23.760Z,196.95
2024-04-26T00:54:23.763Z,197.47
2024-04-26T00:55:23.805Z,196.78
2024-04-26T00:56:23.866Z,196.59
2024-04-26T00:57:23.908Z,198.43
2024-04-26T00:58:23.918Z,197.96
2024-04-26T00:59:23.997Z,198.61
2024-04-26T01:00:24.028Z,197.65
2024-04-26T01:01:24.348Z,198.02
2024-04-26T01:02:24.200Z,198.60
2024-04-26T01:03:24.169Z,197.27
2024-04-26T01:04:24.302Z,199.29
2024-04-26T01:05:24.282Z,199.46
2024-04-26T01:06:24.315Z,196.69
2024-04-26T01:07:24.340Z,198.01
2024-04-26T01:08:24.415Z,196.96
2024-04-26T01:09:24.407Z,198.23
2024-04-26T01:10:24.484Z,197.61
2024-04-26T01:11:24.660Z,198.17
2024-04-26T01:12:24.550Z,198.22
2024-04-26T01:13:24.603Z,197.77
2024-04-26T01:14:24.671Z,197.62
2024-04-26T01:15:24.717Z,200.00
2024-04-26T01:16:24.737Z,197.82
2024-04-26T01:17:24.838Z,199.88
2024-04-26T01:18:25.004Z,198.05
2024-04-26T01:19:24.878Z,199.14
2024-04-26T01:20:24.976Z,197.65
2024-04-26T01:21:24.933Z,197.78
2024-04-26T01:22:25.014Z,198.62
2024-04-26T01:23:25.030Z,198.77
2024-04-26T01:24:25.067Z,199.05
2024-04-26T01:25:25.133Z,200.00
2024-04-26T01:26:25.161Z,199.00
2024-04-26T01:27:25.178Z,198.65
2024-04-26T01:28:25.250Z,197.44
2024-04-26T01:29:25.304Z,197.88
2024-04-26T01:30:25.386Z,199.42
2024-04-26T01:31:25.376Z,199.86
2024-04-26T01:32:25.481Z,196.87
2024-04-26T01:33:25.475Z,199.17
2024-04-26T01:34:25.498Z,198.31
2024-04-26T01:35:25.587Z,199.05
2024-04-26T01:36:25.571Z,198.91
2024-04-26T01:37:25.653Z,199.08
2024-04-26T01:38:25.725Z,197.69
2024-04-26T01:39:25.737Z,197.98
2024-04-26T01:40:25.786Z,198.57
2024-04-26T01:41:25.869Z,197.50
2024-04-26T01:42:25.876Z,198.33
2024-04-26T01:43:25.907Z,197.66
2024-04-26T01:44:26.025Z,198.98
2024-04-26T01:45:26.118Z,198.08
2024-04-26T01:46:26.076Z,197.11
2024-04-26T01:47:26.139Z,197.66
2024-04-26T01:48:26.352Z,197.96
2024-04-26T01:49:26.216Z,198.29
2024-04-26T01:50:26.300Z,196.95
2024-04-26T01:51:26.302Z,198.57
2024-04-26T01:52:26.391Z,197.79
2024-04-26T01:53:26.503Z,197.86
2024-04-26T01:54:26.474Z,198.77
2024-04-26T01:55:26.563Z,198.59
2024-04-26T01:56:26.622Z,198.53
2024-04-26T01:57:26.611Z,196.00
2024-04-26T01:58:26.705Z,196.99
2024-04-26T01:59:26.740Z,197.57
2024-04-26T02:00:26.864Z,199.05
2024-04-26T02:01:26.811Z,195.20
2024-04-26T02:02:26.963Z,196.19
2024-04-26T02:03:27.015Z,197.92
2024-04-26T02:04:27.023Z,198.05
2024-04-26T02:05:27.114Z,196.88
2024-04-26T02:06:27.046Z,196.91
2024-04-26T02:07:27.100Z,199.01
2024-04-26T02:08:27.233Z,198.06
2024-04-26T02:09:27.223Z,196.53
2024-04-26T02:10:27.242Z,197.88
2024-04-26T02:11:27.371Z,198.30
2024-04-26T02:12:27.362Z,197.42
2024-04-26T02:13:27.415Z,198.74
2024-04-26T02:14:27.573Z,198.37
2024-04-26T02:15:27.520Z,198.43
2024-04-26T02:16:27.581Z,199.76
2024-04-26T02:17:27.717Z,197.89
2024-04-26T02:18:27.783Z,199.41
2024-04-26T02:19:27.660Z,198.05
2024-04-26T02:20:27.817Z,198.21
2024-04-26T02:21:27.790Z,197.05
2024-04-26T02:22:27.784Z,197.30
2024-04-26T02:23:27.875Z,197.50
2024-04-26T02:24:27.893Z,198.45
2024-04-26T02:25:27.972Z,198.43
2024-04-26T02:26:28.058Z,198.70
2024-04-26T02:27:28.073Z,198.73
2024-04-26T02:28:28.149Z,198.56
2024-04-26T02:29:28.208Z,195.86
2024-04-26T02:30:28.203Z,196.79
2024-04-26T02:31:28.257Z,198.30
2024-04-26T02:32:28.402Z,197.59
2024-04-26T02:33:28.422Z,197.63
2024-04-26T02:34:28.432Z,196.38
2024-04-26T02:35:28.554Z,198.91
2024-04-26T02:36:28.534Z,197.14
2024-04-26T02:37:28.569Z,198.73
2024-04-26T02:38:28.658Z,198.12
2024-04-26T02:39:28.654Z,198.54
2024-04-26T02:40:28.721Z,198.15
2024-04-26T02:41:28.801Z,196.90
2024-04-26T02:42:28.794Z,197.67
2024-04-26T02:43:28.851Z,198.08
2024-04-26T02:44:28.953Z,198.04
2024-04-26T02:45:28.969Z,198.80
2024-04-26T02:46:29.032Z,198.73
2024-04-26T02:47:29.143Z,198.84
2024-04-26T02:48:29.170Z,197.77
2024-04-26T02:49:29.141Z,197.04
2024-04-26T02:50:29.252Z,198.78
2024-04-26T02:51:29.245Z,198.14
2024-04-26T02:52:29.268Z,195.17
2024-04-26T02:53:29.380Z,199.27
2024-04-26T02:54:29.396Z,197.00
2024-04-26T02:55:29.436Z,198.07
2024-04-26T02:56:29.536Z,197.19
2024-04-26T02:57:29.554Z,199.54
2024-04-26T02:58:29.611Z,198.02
2024-04-26T02:59:29.684Z,199.13
2024-04-26T03:00:29.681Z,198.79
2024-04-26T03:01:29.790Z,198.59
2024-04-26T03:02:29.873Z,197.54
2024-04-26T03:03:29.924Z,197.82
2024-04-26T03:04:29.949Z,199.79
2024-04-26T03:05:29.984Z,198.08
2024-04-26T03:06:30.026Z,198.67
2024-04-26T03:07:30.042Z,197.38
2024-04-26T03:08:30.143Z,198.50
2024-04-26T03:09:30.165Z,199.69
2024-04-26T03:10:30.227Z,197.66
2024-04-26T03:11:30.311Z,196.72
2024-04-26T03:12:30.355Z,198.88
2024-04-26T03:13:30.379Z,199.36
2024-04-26T03:14:30.406Z,198.45
2024-04-26T03:15:30.446Z,197.91
2024-04-26T03:16:30.511Z,197.01
2024-04-26T03:17:30.725Z,196.09
2024-04-26T03:18:30.788Z,198.56
2024-04-26T03:19:30.686Z,196.77
2024-04-26T03:20:30.768Z,199.18
2024-04-26T03:21:30.798Z,197.19
2024-04-26T03:22:30.838Z,198.71
2024-04-26T03:23:30.943Z,199.48
2024-04-26T03:24:30.988Z,196.79
2024-04-26T03:25:31.025Z,197.79
2024-04-26T03:26:31.140Z,197.70
2024-04-26T03:27:31.137Z,196.65
2024-04-26T03:28:31.161Z,197.25
2024-04-26T03:29:31.229Z,197.80
2024-04-26T03:30:31.271Z,196.61
2024-04-26T03:31:31.354Z,196.96
2024-04-26T03:32:31.417Z,198.55
2024-04-26T03:33:31.658Z,197.92
2024-04-26T03:34:31.508Z,200.00
2024-04-26T03:35:31.619Z,198.13
2024-04-26T03:36:31.624Z,197.05
2024-04-26T03:37:31.689Z,197.71
2024-04-26T03:38:31.731Z,197.83
2024-04-26T03:39:31.776Z,198.73
2024-04-26T03:40:31.818Z,197.53
2024-04-26T03:41:31.875Z,198.12
2024-04-26T03:42:31.919Z,197.60
2024-04-26T03:43:31.936Z,198.07
2024-04-26T03:44:32.048Z,198.46
2024-04-26T03:45:32.043Z,197.51
2024-04-26T03:46:32.062Z,198.33
2024-04-26T03:47:32.315Z,197.96
2024-04-26T03:48:32.327Z,198.23
2024-04-26T03:49:32.731Z,197.63
2024-04-26T03:50:32.311Z,198.50
2024-04-26T03:51:32.331Z,197.79
2024-04-26T03:52:32.379Z,196.96
2024-04-26T03:53:32.422Z,197.53
2024-04-26T03:54:32.487Z,197.96
2024-04-26T03:55:32.505Z,197.66
2024-04-26T03:56:32.615Z,197.55
2024-04-26T03:57:32.584Z,197.65
2024-04-26T03:58:32.673Z,197.61
2024-04-26T03:59:32.798Z,197.56
2024-04-26T04:00:32.756Z,199.13
2024-04-26T04:01:32.906Z,198.29
2024-04-26T04:02:32.980Z,196.89
2024-04-26T04:03:33.052Z,197.21
2024-04-26T04:04:32.944Z,195.95
2024-04-26T04:05:33.052Z,196.29
2024-04-26T04:06:33.042Z,197.08
2024-04-26T04:07:33.131Z,198.43
2024-04-26T04:08:33.281Z,198.80
2024-04-26T04:09:33.242Z,197.22
2024-04-26T04:10:33.295Z,195.43
2024-04-26T04:11:33.370Z,196.27
2024-04-26T04:12:33.496Z,192.68
2024-04-26T04:13:33.472Z,191.98
2024-04-26T04:14:33.517Z,191.95
2024-04-26T04:15:33.586Z,189.84
2024-04-26T04:16:33.580Z,187.07
2024-04-26T04:17:33.782Z,185.53
2024-04-26T04:18:33.744Z,184.33
2024-04-26T04:19:36.676Z,181.14
2024-04-26T04:20:33.955Z,181.16
2024-04-26T04:21:33.733Z,180.01
2024-04-26T04:22:33.745Z,179.92
2024-04-26T04:23:40.981Z,50.00
2024-04-26T04:24:40.929Z,50.00
2024-04-26T04:25:40.898Z,50.00
2024-04-26T04:26:40.988Z,50.00
2024-04-26T04:27:40.940Z,50.00
2024-04-26T04:28:40.937Z,50.22
2024-04-26T04:29:41.017Z,51.44
2024-04-26T04:30:40.940Z,50.78
2024-04-26T04:31:48.130Z,50.00
2024-04-26T04:32:48.231Z,50.00
2024-04-26T04:33:48.421Z,50.00
2024-04-26T04:34:48.254Z,50.00
2024-04-26T04:35:48.242Z,50.00
2024-04-26T04:36:48.131Z,52.74
2024-04-26T04:37:48.138Z,53.14
2024-04-26T04:38:48.143Z,53.77
2024-04-26T04:39:48.140Z,50.00
2024-04-26T04:40:48.140Z,52.67
2024-04-26T04:41:48.177Z,52.48
2024-04-26T04:42:48.159Z,53.68
2024-04-26T04:43:48.138Z,51.28
2024-04-26T04:44:48.159Z,52.66
2024-04-26T04:45:50.306Z,53.16
2024-04-26T04:46:48.160Z,52.12
2024-04-26T04:47:48.233Z,53.42
2024-04-26T04:48:48.307Z,53.36
2024-04-26T04:49:48.154Z,52.11
2024-04-26T04:50:48.244Z,51.86
2024-04-26T04:51:48.156Z,52.57
2024-04-26T04:52:48.160Z,53.47
2024-04-26T04:53:48.157Z,54.50
2024-04-26T04:54:48.167Z,54.09
2024-04-26T04:55:48.188Z,52.89
2024-04-26T04:56:48.145Z,56.65
2024-04-26T04:57:48.166Z,55.51
2024-04-26T04:58:48.148Z,57.66
2024-04-26T04:59:48.275Z,58.41
2024-04-26T05:00:48.236Z,58.17
2024-04-26T05:01:48.169Z,58.97
2024-04-26T05:02:48.268Z,56.48
2024-04-26T05:03:48.466Z,56.15
2024-04-26T05:04:48.255Z,55.75
2024-04-26T05:05:48.271Z,56.09
2024-04-26T05:06:48.184Z,54.73
2024-04-26T05:07:48.191Z,54.62
2024-04-26T05:08:48.190Z,51.49
2024-04-26T05:09:48.179Z,50.61
2024-04-26T05:10:48.173Z,50.91
2024-04-26T05:11:48.324Z,51.55
2024-04-26T05:12:48.434Z,50.00
2024-04-26T05:13:48.233Z,52.50
2024-04-26T05:14:48.270Z,52.36
2024-04-26T05:15:48.199Z,51.36
2024-04-26T05:16:48.182Z,51.16
2024-04-26T05:17:48.410Z,54.98
2024-04-26T05:18:48.327Z,51.47
2024-04-26T05:19:48.347Z,51.40
2024-04-26T05:20:48.287Z,50.33
2024-04-26T05:21:48.212Z,50.24
2024-04-26T05:22:48.190Z,51.56
2024-04-26T05:23:48.283Z,50.84
2024-04-26T05:24:48.204Z,50.67
2024-04-26T05:25:48.214Z,50.26
2024-04-26T05:26:48.229Z,51.96
2024-04-26T05:27:48.253Z,50.47
2024-04-26T05:28:48.299Z,51.98
2024-04-26T05:29:48.456Z,50.88
2024-04-26T05:30:48.455Z,53.21
2024-04-26T05:31:48.439Z,54.41
2024-04-26T05:32:48.798Z,55.10
2024-04-26T05:33:48.799Z,55.25
2024-04-26T05:34:48.637Z,56.28
2024-04-26T05:35:48.672Z,57.14
2024-04-26T05:36:48.719Z,59.19
2024-04-26T05:37:48.794Z,59.60
2024-04-26T05:38:48.928Z,61.81
2024-04-26T05:39:48.850Z,60.87
2024-04-26T05:40:48.936Z,64.24
2024-04-26T05:41:49.033Z,63.96
2024-04-26T05:42:49.360Z,64.95
2024-04-26T05:43:49.078Z,65.98
2024-04-26T05:44:49.268Z,65.70
2024-04-26T05:45:49.202Z,68.29
2024-04-26T05:46:49.277Z,68.05
2024-04-26T05:47:49.475Z,67.57
2024-04-26T05:48:49.722Z,69.84
2024-04-26T05:49:49.316Z,68.52
2024-04-26T05:50:49.456Z,69.62
2024-04-26T05:51:49.510Z,69.37
2024-04-26T05:52:49.617Z,67.72
2024-04-26T05:53:49.868Z,64.81
2024-04-26T05:54:49.673Z,63.50
2024-04-26T05:55:49.712Z,64.39
2024-04-26T05:56:50.334Z,63.33
2024-04-26T05:57:49.788Z,63.27
2024-04-26T05:58:49.879Z,60.99
2024-04-26T05:59:49.902Z,62.35
2024-04-26T06:00:49.943Z,60.84
2024-04-26T06:01:50.012Z,62.59
2024-04-26T06:02:50.068Z,62.40
2024-04-26T06:03:50.511Z,61.09
2024-04-26T06:04:50.118Z,58.49
2024-04-26T06:05:50.208Z,61.29
2024-04-26T06:06:50.188Z,61.33
2024-04-26T06:07:50.240Z,60.12
2024-04-26T06:08:50.311Z,59.38
2024-04-26T06:09:50.422Z,57.48
2024-04-26T06:10:50.531Z,56.97
2024-04-26T06:11:50.644Z,56.17
2024-04-26T06:12:54.005Z,56.23
2024-04-26T06:13:50.709Z,57.91
2024-04-26T06:14:50.548Z,57.36
2024-04-26T06:15:50.508Z,55.67
2024-04-26T06:16:50.465Z,53.10
2024-04-26T06:17:50.725Z,53.10
2024-04-26T06:18:51.246Z,52.41
2024-04-26T06:19:50.473Z,52.85
2024-04-26T06:20:50.713Z,54.18
2024-04-26T06:21:50.465Z,54.91
2024-04-26T06:22:50.487Z,54.18
2024-04-26T06:23:50.614Z,57.21
2024-04-26T06:24:50.502Z,56.70
2024-04-26T06:25:50.468Z,57.47
2024-04-26T06:26:50.568Z,56.44
2024-04-26T06:27:50.496Z,58.49
2024-04-26T06:29:53.290Z,50.00
2024-04-26T06:30:53.204Z,50.00
2024-04-26T06:31:53.049Z,50.00
2024-04-26T06:32:53.268Z,50.00
2024-04-26T06:33:53.157Z,50.00
2024-04-26T06:34:53.318Z,51.41
2024-04-26T06:35:55.144Z,52.50
2024-04-26T06:36:53.007Z,50.74
2024-04-26T06:37:54.040Z,51.28
2024-04-26T06:38:54.364Z,52.10
2024-04-26T06:39:53.152Z,50.33
2024-04-26T06:40:53.148Z,50.00
2024-04-26T06:41:53.209Z,50.17
2024-04-26T06:42:53.208Z,50.86
2024-04-26T06:44:02.849Z,50.00
2024-04-26T06:44:54.284Z,50.12
2024-04-26T06:45:53.215Z,51.25
2024-04-26T06:46:53.276Z,53.62
2024-04-26T06:47:53.375Z,56.21
2024-04-26T06:48:53.376Z,60.05
2024-04-26T06:49:53.400Z,61.26
2024-04-26T06:50:53.247Z,60.96
2024-04-26T06:51:53.168Z,62.51
2024-04-26T06:52:53.202Z,61.84
2024-04-26T06:53:53.236Z,60.37
2024-04-26T06:54:54.398Z,64.53
2024-04-26T06:55:53.237Z,64.29
2024-04-26T06:56:54.199Z,67.17
2024-04-26T06:57:53.638Z,64.62
2024-04-26T06:58:54.180Z,66.22
2024-04-26T06:59:53.369Z,64.38
2024-04-26T07:00:53.299Z,65.13
2024-04-26T07:01:53.542Z,63.48
2024-04-26T07:02:53.514Z,63.21
2024-04-26T07:03:53.530Z,63.73
2024-04-26T07:04:53.476Z,65.47
2024-04-26T07:05:55.982Z,60.83
2024-04-26T07:06:53.268Z,62.32
2024-04-26T07:07:53.225Z,63.43
2024-04-26T07:08:53.266Z,63.01
2024-04-26T07:09:53.202Z,62.67
2024-04-26T07:10:53.282Z,61.93
2024-04-26T07:11:53.446Z,60.97
2024-04-26T07:12:53.326Z,60.53
2024-04-26T07:13:53.234Z,59.73
2024-04-26T07:14:53.707Z,61.61
2024-04-26T07:16:53.298Z,58.88
2024-04-26T07:17:53.380Z,57.44
2024-04-26T07:18:53.541Z,57.87
2024-04-26T07:19:53.505Z,58.56
2024-04-26T07:20:53.353Z,57.18
2024-04-26T07:21:53.309Z,55.18
2024-04-26T07:23:01.531Z,55.09
2024-04-26T07:23:54.275Z,54.51
2024-04-26T07:24:53.246Z,54.02
2024-04-26T07:25:53.243Z,53.71
2024-04-26T07:26:53.334Z,51.55
2024-04-26T07:27:53.374Z,52.55
2024-04-26T07:28:53.242Z,53.13
2024-04-26T07:29:53.302Z,53.38
2024-04-26T07:30:53.216Z,51.88
2024-04-26T07:31:54.107Z,50.15
2024-04-26T07:32:53.441Z,51.28
2024-04-26T07:33:53.391Z,68.85
2024-04-26T07:34:53.687Z,90.37
2024-04-26T07:35:53.347Z,101.32
2024-04-26T07:36:53.261Z,109.16
2024-04-26T07:37:53.241Z,108.60
2024-04-26T07:38:53.327Z,111.27
2024-04-26T07:39:53.675Z,112.55
2024-04-26T07:40:53.431Z,113.00
2024-04-26T07:41:53.450Z,112.42
2024-04-26T07:42:53.447Z,113.14
2024-04-26T07:43:56.254Z,109.94
2024-04-26T07:44:53.723Z,106.81
2024-04-26T07:45:53.411Z,107.15
2024-04-26T07:46:53.613Z,106.12
2024-04-26T07:47:53.571Z,105.30
2024-04-26T07:48:53.830Z,104.91
2024-04-26T07:49:53.581Z,102.28
2024-04-26T07:50:54.183Z,102.63
2024-04-26T07:51:53.468Z,99.00
2024-04-26T07:52:53.448Z,98.70
2024-04-26T07:53:54.190Z,96.00
2024-04-26T07:54:53.418Z,94.72
2024-04-26T07:55:53.438Z,92.96
2024-04-26T07:56:53.500Z,92.50
2024-04-26T07:57:53.440Z,93.01
2024-04-26T07:58:53.492Z,87.04
2024-04-26T07:59:53.703Z,83.25
2024-04-26T08:00:53.447Z,80.64
2024-04-26T08:01:53.473Z,80.46
2024-04-26T08:02:54.177Z,79.07
2024-04-26T08:03:53.672Z,74.42
2024-04-26T08:04:53.465Z,71.41
2024-04-26T08:05:53.457Z,66.86
2024-04-26T08:06:53.432Z,63.21
2024-04-26T08:07:53.499Z,59.01
2024-04-26T08:08:53.468Z,50.00
2024-04-26T08:09:53.445Z,53.09
2024-04-26T08:10:53.421Z,50.00
2024-04-26T08:11:53.547Z,50.00
2024-04-26T08:12:53.760Z,50.00
2024-04-26T08:13:53.499Z,50.64
2024-04-26T08:14:54.257Z,50.04
2024-04-26T08:15:53.449Z,48.53
2024-04-26T08:16:53.521Z,50.00
2024-04-26T08:17:53.625Z,50.74
2024-04-26T08:18:53.842Z,50.00
2024-04-26T08:19:53.439Z,51.99
2024-04-26T08:20:53.514Z,51.98
2024-04-26T08:21:53.453Z,51.61
2024-04-26T08:22:53.449Z,50.63
2024-04-26T08:23:53.626Z,50.36
2024-04-26T08:24:57.971Z,50.12
2024-04-26T08:25:54.605Z,50.24
2024-04-26T08:26:53.541Z,49.71
2024-04-26T08:27:53.463Z,46.83
2024-04-26T08:28:53.517Z,44.35
2024-04-26T08:29:53.523Z,43.56
2024-04-26T08:30:53.583Z,50.03
2024-04-26T08:31:53.611Z,49.65
2024-04-26T08:32:57.665Z,51.85
2024-04-26T08:33:54.885Z,44.37
2024-04-26T08:34:53.818Z,34.76
2024-04-26T08:35:53.802Z,25.98
2024-04-26T08:36:53.570Z,17.49
2024-04-26T08:37:53.483Z,10.98
2024-04-26T08:38:53.668Z,18.92
2024-04-26T08:39:57.965Z,24.88
2024-04-26T08:40:54.487Z,11.69
2024-04-26T08:41:53.494Z,5.41
2024-04-26T08:42:53.488Z,0.00
2024-04-26T08:43:53.499Z,0.00
2024-04-26T08:44:53.556Z,0.00
2024-04-26T08:45:53.480Z,11.59
2024-04-26T08:46:53.591Z,29.39
2024-04-26T08:47:53.785Z,51.84
2024-04-26T08:48:53.618Z,52.42
2024-04-26T08:49:53.491Z,54.97
2024-04-26T08:50:55.950Z,57.39
2024-04-26T08:51:53.488Z,56.19
2024-04-26T08:52:53.496Z,59.56
2024-04-26T08:53:53.612Z,61.13
2024-04-26T08:54:53.511Z,60.43
2024-04-26T08:55:53.653Z,63.47
2024-04-26T08:56:54.646Z,70.27
2024-04-26T08:57:53.556Z,71.85
2024-04-26T08:58:53.707Z,71.77
2024-04-26T08:59:53.599Z,72.92
2024-04-26T09:00:53.659Z,71.57
2024-04-26T09:01:53.537Z,76.01
2024-04-26T09:02:53.717Z,75.92
2024-04-26T09:03:53.956Z,78.68
2024-04-26T09:04:53.533Z,76.12
2024-04-26T09:05:53.526Z,83.31
2024-04-26T09:06:53.573Z,79.51
2024-04-26T09:07:53.658Z,82.41
2024-04-26T09:08:53.551Z,82.63
2024-04-26T09:09:53.636Z,82.27
2024-04-26T09:10:53.536Z,80.38
2024-04-26T09:11:53.597Z,82.30
2024-04-26T09:13:01.295Z,82.69
2024-04-26T09:13:54.515Z,82.83
2024-04-26T09:14:53.526Z,83.12
2024-04-26T09:15:53.519Z,84.94
2024-04-26T09:16:53.553Z,86.90
2024-04-26T09:17:53.961Z,88.15
2024-04-26T09:18:53.682Z,85.12
2024-04-26T09:19:53.539Z,87.49
2024-04-26T09:20:53.668Z,90.84
2024-04-26T09:21:53.488Z,90.96
2024-04-26T09:22:53.683Z,92.79
2024-04-26T09:23:53.623Z,91.54
2024-04-26T09:24:53.569Z,94.48
2024-04-26T09:25:53.532Z,94.76
2024-04-26T09:26:53.597Z,97.16
2024-04-26T09:27:53.544Z,96.21
2024-04-26T09:28:53.613Z,94.83
2024-04-26T09:29:53.676Z,99.71
2024-04-26T09:30:53.712Z,98.44
2024-04-26T09:31:55.167Z,98.01
2024-04-26T09:32:59.162Z,94.58
2024-04-26T09:33:54.862Z,94.61
2024-04-26T09:34:54.030Z,94.89
2024-04-26T09:35:55.109Z,94.72
2024-04-26T09:36:53.800Z,97.23
2024-04-26T09:37:54.310Z,100.40
2024-04-26T09:38:53.801Z,107.17
2024-04-26T09:39:53.715Z,111.38
2024-04-26T09:40:53.729Z,115.93
2024-04-26T09:41:53.754Z,122.98
2024-04-26T09:42:53.747Z,125.67
2024-04-26T09:43:53.875Z,131.66
2024-04-26T09:44:53.842Z,136.73
2024-04-26T09:45:53.758Z,141.97
2024-04-26T09:46:56.690Z,139.47
2024-04-26T09:47:53.919Z,140.82
2024-04-26T09:48:54.765Z,142.28
2024-04-26T09:49:54.021Z,142.29
2024-04-26T09:50:53.877Z,146.61
2024-04-26T09:51:53.761Z,147.95
2024-04-26T09:52:53.781Z,149.81
2024-04-26T09:53:53.887Z,152.75
2024-04-26T09:54:53.779Z,151.87
2024-04-26T09:55:53.739Z,152.44
2024-04-26T09:56:53.759Z,152.98
2024-04-26T09:57:53.748Z,152.80
2024-04-26T09:58:53.818Z,153.86
2024-04-26T09:59:53.800Z,154.69
2024-04-26T10:00:53.795Z,153.59
2024-04-26T10:01:53.787Z,153.00
2024-04-26T10:02:54.264Z,147.86
2024-04-26T10:03:53.991Z,141.05
2024-04-26T10:04:53.954Z,136.84
2024-04-26T10:05:53.885Z,135.91
2024-04-26T10:06:53.809Z,133.19
2024-04-26T10:07:53.769Z,132.12
2024-04-26T10:08:53.792Z,129.77
2024-04-26T10:09:53.834Z,127.47
2024-04-26T10:10:53.804Z,125.49
2024-04-26T10:11:53.974Z,128.67
2024-04-26T10:12:53.877Z,124.66
2024-04-26T10:13:53.762Z,123.63
2024-04-26T10:14:53.875Z,117.70
2024-04-26T10:15:54.228Z,113.66
2024-04-26T10:16:53.780Z,110.92
2024-04-26T10:17:54.060Z,107.65
2024-04-26T10:18:54.061Z,104.20
2024-04-26T10:19:53.910Z,104.75
2024-04-26T10:20:54.705Z,103.54
2024-04-26T10:21:53.820Z,102.29
2024-04-26T10:22:55.782Z,101.64
2024-04-26T10:23:53.849Z,102.77
2024-04-26T10:24:53.862Z,104.27
2024-04-26T10:25:53.818Z,103.14
2024-04-26T10:26:53.830Z,100.76
2024-04-26T10:27:54.760Z,99.04
2024-04-26T10:28:55.242Z,94.88
2024-04-26T10:29:53.792Z,93.99
2024-04-26T10:30:53.781Z,90.44
2024-04-26T10:31:53.764Z,88.07
2024-04-26T10:32:53.962Z,88.79
2024-04-26T10:33:54.229Z,85.55
2024-04-26T10:34:53.837Z,89.34
2024-04-26T10:35:53.876Z,87.66
2024-04-26T10:36:53.852Z,85.73
2024-04-26T10:37:53.922Z,85.25
2024-04-26T10:38:54.174Z,86.52
2024-04-26T10:39:53.958Z,83.08
2024-04-26T10:40:53.940Z,82.13
2024-04-26T10:41:54.027Z,79.24
2024-04-26T10:42:54.722Z,78.20
2024-04-26T10:43:54.151Z,78.49
2024-04-26T10:44:54.135Z,74.25
2024-04-26T10:45:54.095Z,68.19
2024-04-26T10:46:54.250Z,69.35
2024-04-26T10:47:54.305Z,64.02
2024-04-26T10:48:54.401Z,57.91
2024-04-26T10:49:54.416Z,56.39
2024-04-26T10:50:56.296Z,54.30
2024-04-26T10:51:54.217Z,52.29
2024-04-26T10:52:54.282Z,54.34
2024-04-26T10:53:54.304Z,51.21
2024-04-26T10:54:54.362Z,53.43
2024-04-26T10:55:54.354Z,51.68
2024-04-26T10:56:55.625Z,52.70
2024-04-26T10:57:54.403Z,49.66
2024-04-26T10:58:54.417Z,50.82
2024-04-26T10:59:54.520Z,54.85
2024-04-26T11:00:54.485Z,51.70
2024-04-26T11:01:54.499Z,50.02
2024-04-26T11:02:54.606Z,50.89
2024-04-26T11:03:55.220Z,54.65
2024-04-26T11:04:54.729Z,52.45
2024-04-26T11:05:54.750Z,50.58
2024-04-26T11:06:54.645Z,51.31
2024-04-26T11:07:54.677Z,53.36
2024-04-26T11:08:55.986Z,55.16
2024-04-26T11:09:54.711Z,51.92
2024-04-26T11:10:54.789Z,55.86
2024-04-26T11:11:54.858Z,54.36
2024-04-26T11:12:54.845Z,53.47
2024-04-26T11:13:54.834Z,51.75
2024-04-26T11:14:55.240Z,56.03
2024-04-26T11:15:54.891Z,51.97
2024-04-26T11:16:55.132Z,51.38
2024-04-26T11:17:55.054Z,54.21
2024-04-26T11:18:55.103Z,52.57
2024-04-26T11:19:55.225Z,53.29
2024-04-26T11:20:56.312Z,57.32
2024-04-26T11:21:55.054Z,54.34
2024-04-26T11:22:55.193Z,58.03
2024-04-26T11:23:55.209Z,61.67
2024-04-26T11:24:55.155Z,65.17
2024-04-26T11:25:57.688Z,69.58
2024-04-26T11:26:55.477Z,74.47
2024-04-26T11:27:55.446Z,78.44
2024-04-26T11:28:55.467Z,79.53
2024-04-26T11:29:55.539Z,79.03
2024-04-26T11:30:55.506Z,83.70
2024-04-26T11:31:55.625Z,82.93
2024-04-26T11:32:55.741Z,79.19
2024-04-26T11:33:55.796Z,83.22
2024-04-26T11:34:55.842Z,86.95
2024-04-26T11:35:55.839Z,90.56
2024-04-26T11:36:55.752Z,86.38
2024-04-26T11:37:55.792Z,87.87
2024-04-26T11:38:55.869Z,87.96
2024-04-26T11:39:55.932Z,87.24
2024-04-26T11:40:55.933Z,87.89
2024-04-26T11:41:55.967Z,85.79
2024-04-26T11:42:56.004Z,81.05
2024-04-26T11:43:56.003Z,79.95
2024-04-26T11:44:56.163Z,80.25
2024-04-26T11:45:56.081Z,80.36
2024-04-26T11:46:56.131Z,76.30
2024-04-26T11:47:56.344Z,74.54
2024-04-26T11:48:56.465Z,72.67
2024-04-26T11:49:56.366Z,70.92
2024-04-26T11:50:56.459Z,67.95
2024-04-26T11:51:56.304Z,66.13
2024-04-26T11:52:57.262Z,67.60
2024-04-26T11:53:56.811Z,66.79
2024-04-26T11:54:56.447Z,67.01
2024-04-26T11:55:56.468Z,66.00
2024-04-26T11:56:56.567Z,65.08
2024-04-26T11:57:56.554Z,69.03
2024-04-26T11:58:56.601Z,68.09
2024-04-26T11:59:56.682Z,73.62
2024-04-26T12:00:56.757Z,69.01
2024-04-26T12:01:56.744Z,69.98
2024-04-26T12:02:56.840Z,70.40
2024-04-26T12:03:56.824Z,69.32
2024-04-26T12:04:56.937Z,70.18
2024-04-26T12:05:57.020Z,71.38
2024-04-26T12:06:56.938Z,69.42
2024-04-26T12:07:57.023Z,64.95
2024-04-26T12:08:59.838Z,67.90
2024-04-26T12:09:57.215Z,62.29
2024-04-26T12:10:57.092Z,63.56
2024-04-26T12:11:57.162Z,63.28
2024-04-26T12:12:58.257Z,59.27
2024-04-26T12:13:57.028Z,61.32
2024-04-26T12:14:57.116Z,60.79
2024-04-26T12:15:57.116Z,63.05
2024-04-26T12:16:57.071Z,56.74
2024-04-26T12:17:57.101Z,56.96
2024-04-26T12:18:57.154Z,59.13
2024-04-26T12:19:57.041Z,60.79
2024-04-26T12:20:57.035Z,60.80
2024-04-26T12:21:57.061Z,62.45
2024-04-26T12:22:57.032Z,63.32
2024-04-26T12:23:57.091Z,65.08
2024-04-26T12:24:57.002Z,68.41
2024-04-26T12:25:57.053Z,69.21
2024-04-26T12:26:57.093Z,69.66
2024-04-26T12:27:57.055Z,75.00
2024-04-26T12:28:57.025Z,77.01
2024-04-26T12:29:57.203Z,73.96
2024-04-26T12:30:57.039Z,79.27
2024-04-26T12:31:57.228Z,82.00
2024-04-26T12:32:57.145Z,80.86
2024-04-26T12:33:57.807Z,74.44
2024-04-26T12:34:57.184Z,71.84
2024-04-26T12:35:57.127Z,69.79
2024-04-26T12:36:57.123Z,70.10
2024-04-26T12:37:57.087Z,74.18
2024-04-26T12:38:57.097Z,66.38
2024-04-26T12:39:57.185Z,60.86
2024-04-26T12:40:57.153Z,62.78
2024-04-26T12:41:57.219Z,62.29
2024-04-26T12:42:57.256Z,61.31
2024-04-26T12:43:57.291Z,61.36
2024-04-26T12:44:57.423Z,59.10